Time;durP1;ratioP1;P1;durP2;ratioP2;P2;SDS_P1;SDS_P2;PMS_P1;PMS_P2;Temp;Humidity;BMP_temperature;BMP_pressure;BME280_temperature;BME280_humidity;BME280_pressure;Samples;Min_cycle;Max_cycle;Signal;HPM_P1;HPM_P2
2021/05/28 00:01:58;;;;;;;18.15;11.28;;;;;;;11.97;66.34;100444.13;1678889;84;25197;-78
2021/05/28 00:04:24;;;;;;;19.80;11.85;;;;;;;11.99;66.35;100444.78;1675616;84;25311;-78
2021/05/28 00:06:50;;;;;;;14.58;10.45;;;;;;;12.03;66.44;100453.13;1651515;84;26964;-78
2021/05/28 00:09:16;;;;;;;18.80;11.05;;;;;;;12.05;66.33;100451.63;1679724;84;32165;-78
2021/05/28 00:11:42;;;;;;;20.72;10.30;;;;;;;12.05;66.40;100449.82;1677176;84;25306;-78
2021/05/28 00:14:08;;;;;;;19.90;10.75;;;;;;;12.04;66.44;100456.06;1678286;84;35188;-78
2021/05/28 00:16:36;;;;;;;15.18;10.75;;;;;;;12.07;66.50;100457.02;1683757;84;25152;-78
2021/05/28 00:19:03;;;;;;;13.70;10.32;;;;;;;12.13;66.41;100453.70;1681135;84;25756;-78
2021/05/28 00:21:29;;;;;;;15.23;10.18;;;;;;;12.13;66.41;100452.89;1679590;84;25256;-78
2021/05/28 00:23:55;;;;;;;16.52;10.10;;;;;;;12.11;66.26;100454.39;1677626;84;31235;-78
2021/05/28 00:26:21;;;;;;;16.30;11.45;;;;;;;12.05;66.22;100462.92;1679698;84;34733;-78
2021/05/28 00:28:49;;;;;;;15.72;10.93;;;;;;;11.90;66.22;100462.03;1681482;84;25711;-78
2021/05/28 00:31:19;;;;;;;15.15;11.88;;;;;;;11.76;66.54;100455.18;1678447;84;25532;-78
2021/05/28 00:33:46;;;;;;;;;;;;;;;11.75;66.76;100460.08;1678979;84;25693;-78
2021/05/28 00:36:13;;;;;;;15.48;11.78;;;;;;;11.82;66.88;100456.80;1679851;84;25189;-78
2021/05/28 00:38:39;;;;;;;20.00;12.55;;;;;;;11.71;66.81;100459.30;1676223;84;25640;-78
2021/05/28 00:41:05;;;;;;;17.17;12.98;;;;;;;11.63;66.85;100461.45;1676896;84;25658;-78
2021/05/28 00:43:31;;;;;;;15.50;11.93;;;;;;;11.62;67.08;100464.22;1676131;84;25625;-78
2021/05/28 00:45:57;;;;;;;16.03;11.27;;;;;;;11.58;67.25;100462.45;1677474;84;31473;-78
2021/05/28 00:48:23;;;;;;;14.50;9.90;;;;;;;11.53;67.24;100467.36;1676206;84;25607;-78
2021/05/28 00:50:49;;;;;;;13.62;9.78;;;;;;;11.52;67.40;100464.44;1681433;84;34651;-78
2021/05/28 00:53:16;;;;;;;13.93;9.85;;;;;;;11.53;67.35;100472.60;1680389;84;25259;-78
2021/05/28 00:55:42;;;;;;;17.23;10.75;;;;;;;11.49;67.26;100479.17;1652431;84;27088;-78
2021/05/28 00:58:08;;;;;;;13.80;10.28;;;;;;;11.47;67.38;100477.20;1678522;84;25575;-78
2021/05/28 01:00:35;;;;;;;13.05;8.95;;;;;;;11.47;67.34;100474.09;1678546;84;26057;-78
2021/05/28 01:03:01;;;;;;;13.18;9.68;;;;;;;11.43;67.25;100471.50;1678658;84;25530;-78
2021/05/28 01:05:28;;;;;;;19.45;10.98;;;;;;;11.43;67.42;100475.42;1680257;84;25493;-78
2021/05/28 01:07:54;;;;;;;16.95;10.25;;;;;;;11.47;67.43;100473.28;1676506;84;25638;-78
2021/05/28 01:10:20;;;;;;;14.38;10.75;;;;;;;11.45;67.32;100475.24;1680079;84;25248;-78
2021/05/28 01:12:46;;;;;;;15.23;10.35;;;;;;;11.30;67.38;100481.17;1679548;84;25172;-78
2021/05/28 01:15:13;;;;;;;14.75;10.75;;;;;;;11.21;67.61;100491.80;1677011;84;34537;-78
2021/05/28 01:17:40;;;;;;;13.70;11.43;;;;;;;11.15;67.71;100495.90;1679933;84;25196;-78
2021/05/28 01:20:09;;;;;;;14.70;10.65;;;;;;;11.15;67.96;100493.78;1680507;84;25639;-78
2021/05/28 01:22:37;;;;;;;16.97;10.45;;;;;;;11.14;68.04;100496.89;1679699;84;25584;-78
2021/05/28 01:25:05;;;;;;;17.75;11.00;;;;;;;11.11;68.09;100497.23;1728470;81;26488;-78
2021/05/28 01:27:31;;;;;;;14.95;11.08;;;;;;;11.09;68.24;100499.18;1729153;81;25910;-78
2021/05/28 01:29:58;;;;;;;14.35;9.83;;;;;;;11.01;68.29;100501.30;1727596;81;26494;-78
2021/05/28 01:32:24;;;;;;;15.63;11.73;;;;;;;10.98;68.53;100500.33;1726746;81;25836;-77
2021/05/28 01:34:50;;;;;;;17.98;10.55;;;;;;;10.96;68.65;100493.63;1695767;82;25313;-77
2021/05/28 01:37:17;;;;;;;14.95;10.65;;;;;;;10.99;68.75;100489.38;1735175;82;25327;-77
2021/05/28 01:39:49;;;;;;;14.93;10.55;;;;;;;11.00;68.83;100493.14;1725857;81;25185;-77
2021/05/28 01:42:17;;;;;;;15.78;11.30;;;;;;;10.99;68.81;100495.41;1730019;81;25155;-77
2021/05/28 01:44:46;;;;;;;18.62;11.50;;;;;;;10.98;68.92;100496.91;1738723;81;25604;-77
2021/05/28 01:47:13;;;;;;;14.28;10.48;;;;;;;10.91;68.92;100498.53;1726660;81;25167;-77
2021/05/28 01:49:40;;;;;;;15.88;11.10;;;;;;;10.79;69.07;100494.13;1729784;81;25178;-78
2021/05/28 01:52:08;;;;;;;15.23;11.97;;;;;;;10.68;69.35;100490.03;1723809;81;25215;-78
2021/05/28 01:54:37;;;;;;;16.40;11.65;;;;;;;10.66;69.70;100488.06;1727431;81;25660;-78
2021/05/28 01:57:04;;;;;;;16.37;11.68;;;;;;;10.59;69.77;100487.91;1724202;81;26299;-78
2021/05/28 01:59:30;;;;;;;15.78;11.38;;;;;;;10.57;70.05;100491.66;1727113;81;25592;-78
2021/05/28 02:01:57;;;;;;;14.85;12.00;;;;;;;10.53;70.18;100499.02;1722917;81;25376;-78
2021/05/28 02:04:24;;;;;;;18.85;12.37;;;;;;;10.48;70.33;100499.98;1726212;81;25744;-78
2021/05/28 02:06:51;;;;;;;15.95;12.53;;;;;;;10.51;70.67;100506.19;1722934;81;25184;-78
2021/05/28 02:09:18;;;;;;;19.45;12.33;;;;;;;10.56;70.87;100503.91;1724674;81;26312;-78
2021/05/28 02:11:44;;;;;;;17.90;12.23;;;;;;;10.57;70.95;100505.54;1725479;81;25163;-77
2021/05/28 02:14:11;;;;;;;21.75;12.40;;;;;;;10.59;71.08;100504.08;1722965;81;25395;-77
2021/05/28 02:16:38;;;;;;;15.00;11.73;;;;;;;10.65;71.19;100501.63;1726799;81;25609;-77
2021/05/28 02:19:07;;;;;;;17.55;12.33;;;;;;;10.72;71.22;100497.05;1727557;81;25898;-77
2021/05/28 02:21:34;;;;;;;18.95;11.83;;;;;;;10.81;71.21;100501.32;1726741;81;25592;-77
2021/05/28 02:24:00;;;;;;;15.78;12.00;;;;;;;10.85;71.08;100498.20;1726763;81;25476;-78
2021/05/28 02:26:27;;;;;;;17.02;12.05;;;;;;;10.87;71.11;100498.05;1721946;81;25538;-77
2021/05/28 02:28:53;;;;;;;14.93;11.00;;;;;;;10.91;71.16;100501.95;1717748;82;25446;-77
2021/05/28 02:31:19;;;;;;;15.70;11.73;;;;;;;10.94;71.05;100497.73;1727942;81;25590;-78
2021/05/28 02:33:45;;;;;;;15.83;12.47;;;;;;;10.97;71.01;100506.55;1725878;81;25517;-77
2021/05/28 02:36:11;;;;;;;15.50;11.75;;;;;;;10.98;70.84;100512.59;1725801;81;25621;-78
2021/05/28 02:38:37;;;;;;;14.55;11.83;;;;;;;10.97;70.88;100517.52;1726112;81;25583;-78
2021/05/28 02:41:04;;;;;;;17.80;12.95;;;;;;;11.01;70.95;100518.30;1728544;81;25608;-78
2021/05/28 02:43:30;;;;;;;15.83;11.88;;;;;;;11.00;70.78;100517.99;1728319;81;25156;-78
2021/05/28 02:45:56;;;;;;;12.60;10.37;;;;;;;10.95;70.74;100515.55;1726775;81;25528;-78
2021/05/28 02:48:44;;;;;;;12.50;9.85;;;;;;;10.94;70.75;100513.89;1716858;81;25607;-78
2021/05/28 02:51:10;;;;;;;13.88;10.50;;;;;;;10.92;70.64;100515.37;1717927;81;25715;-78
2021/05/28 02:53:36;;;;;;;16.55;11.55;;;;;;;10.91;70.71;100512.91;1714695;81;25126;-78
2021/05/28 02:56:04;;;;;;;14.10;10.68;;;;;;;10.92;70.70;100517.19;1716844;81;32293;-78
2021/05/28 02:58:31;;;;;;;15.48;11.53;;;;;;;10.92;70.64;100525.03;1714645;81;26454;-78
2021/05/28 03:00:57;;;;;;;15.10;11.03;;;;;;;10.89;70.83;100522.25;1716223;81;25531;-78
2021/05/28 03:03:24;;;;;;;16.02;10.98;;;;;;;10.93;70.96;100524.03;1717456;81;25630;-77
2021/05/28 03:05:51;;;;;;;16.27;10.88;;;;;;;10.95;71.03;100528.13;1716869;81;25600;-77
2021/05/28 03:08:18;;;;;;;15.38;10.68;;;;;;;11.02;71.17;100531.73;1715327;81;25560;-78
2021/05/28 03:10:45;;;;;;;15.88;10.95;;;;;;;11.09;71.20;100527.95;1713953;81;25915;-78
2021/05/28 03:13:12;;;;;;;18.10;10.88;;;;;;;11.09;71.11;100523.53;1716681;81;25382;-78
2021/05/28 03:15:38;;;;;;;13.78;10.10;;;;;;;11.12;71.26;100515.85;1716766;81;25612;-78
2021/05/28 03:18:05;;;;;;;15.10;10.72;;;;;;;11.10;71.31;100513.88;1715422;81;25117;-78
2021/05/28 03:20:36;;;;;;;15.10;9.45;;;;;;;11.09;71.50;100517.49;1717857;81;25735;-78
2021/05/28 03:23:06;;;;;;;13.03;9.73;;;;;;;11.06;71.67;100513.90;1687808;81;25618;-78
2021/05/28 03:25:32;;;;;;;12.40;9.33;;;;;;;11.05;71.84;100512.28;1719254;81;26357;-78
2021/05/28 03:27:58;;;;;;;13.80;9.35;;;;;;;11.06;72.00;100515.21;1715728;81;25547;-77
2021/05/28 03:30:25;;;;;;;13.45;9.05;;;;;;;11.08;72.22;100513.25;1715332;81;25306;-77
2021/05/28 03:32:51;;;;;;;10.45;8.15;;;;;;;11.08;72.30;100508.84;1716460;81;25194;-78
2021/05/28 03:35:17;;;;;;;10.40;7.90;;;;;;;11.12;72.64;100508.01;1715361;81;25527;-77
2021/05/28 03:37:43;;;;;;;11.03;7.97;;;;;;;11.14;72.51;100506.05;1716658;81;32628;-78
2021/05/28 03:40:11;;;;;;;10.48;7.95;;;;;;;11.18;72.66;100515.19;1717440;81;25669;-77
2021/05/28 03:42:37;;;;;;;12.75;8.33;;;;;;;11.19;72.60;100515.53;1717159;81;26292;-78
2021/05/28 03:45:05;;;;;;;13.98;8.63;;;;;;;11.19;72.73;100514.72;1719985;81;25486;-77
2021/05/28 03:47:33;;;;;;;12.40;7.53;;;;;;;11.21;72.78;100517.97;1721291;81;25689;-77
2021/05/28 03:50:00;;;;;;;12.37;8.25;;;;;;;11.24;73.80;100521.55;1714895;81;25189;-77
2021/05/28 03:52:26;;;;;;;10.20;8.43;;;;;;;11.23;72.95;100523.86;1719686;81;25579;-78
2021/05/28 03:54:52;;;;;;;10.85;8.10;;;;;;;11.21;73.75;100529.27;1715811;81;25594;-77
2021/05/28 03:57:18;;;;;;;13.10;8.50;;;;;;;11.19;73.08;100525.19;1714549;81;25551;-77
2021/05/28 03:59:44;;;;;;;11.75;7.40;;;;;;;11.21;73.14;100527.12;1717101;81;25575;-76
2021/05/28 04:02:10;;;;;;;11.30;7.97;;;;;;;11.22;73.43;100527.47;1732209;81;25206;-77
2021/05/28 04:04:36;;;;;;;13.57;7.57;;;;;;;11.18;73.54;100526.95;1716935;81;31391;-77
2021/05/28 04:07:02;;;;;;;11.95;7.92;;;;;;;11.13;73.42;100525.36;1717786;81;26373;-77
2021/05/28 04:09:28;;;;;;;9.98;7.03;;;;;;;11.13;73.64;100525.36;1716722;81;25192;-77
2021/05/28 04:11:56;;;;;;;10.47;7.53;;;;;;;11.17;73.70;100523.22;1717397;81;25981;-76
2021/05/28 04:14:21;;;;;;;10.20;7.33;;;;;;;11.19;74.20;100531.73;1717967;81;25279;-76
2021/05/28 04:16:48;;;;;;;10.17;7.70;;;;;;;11.16;74.20;100528.95;1717714;81;29286;-77
2021/05/28 04:19:14;;;;;;;9.40;7.08;;;;;;;11.13;74.19;100531.89;1716276;81;25344;-77
2021/05/28 04:21:39;;;;;;;9.28;6.90;;;;;;;11.14;75.52;100529.59;1713669;81;32377;-77
2021/05/28 04:24:07;;;;;;;10.08;6.72;;;;;;;11.16;74.71;100534.64;1716605;81;26599;-77
2021/05/28 04:26:33;;;;;;;9.08;7.30;;;;;;;11.16;74.93;100531.56;1715416;81;25524;-76
2021/05/28 04:28:59;;;;;;;11.65;7.75;;;;;;;11.16;74.87;100536.80;1715712;81;25468;-77
2021/05/28 04:31:25;;;;;;;9.68;7.15;;;;;;;11.18;74.94;100537.92;1715268;81;34822;-77
2021/05/28 04:33:51;;;;;;;11.35;8.08;;;;;;;11.19;74.87;100536.95;1716585;81;26432;-77
2021/05/28 04:36:17;;;;;;;9.37;6.87;;;;;;;11.19;75.06;100533.84;1715321;81;26002;-77
2021/05/28 04:38:43;;;;;;;12.88;7.65;;;;;;;11.20;75.65;100542.01;1714601;81;25638;-77
2021/05/28 04:41:09;;;;;;;10.57;7.97;;;;;;;11.21;75.33;100539.73;1716143;81;29394;-77
2021/05/28 04:43:35;;;;;;;9.13;7.35;;;;;;;11.22;75.69;100536.63;1715735;81;25478;-77
2021/05/28 04:46:02;;;;;;;11.20;8.10;;;;;;;11.25;75.48;100541.03;1683848;81;25238;-78
2021/05/28 04:48:27;;;;;;;11.50;7.53;;;;;;;11.30;75.31;100542.66;1717789;81;25665;-77
2021/05/28 04:50:54;;;;;;;13.13;7.50;;;;;;;11.33;75.47;100542.33;1714130;81;33213;-77
2021/05/28 04:53:20;;;;;;;9.88;7.47;;;;;;;11.37;75.36;100540.69;1714969;81;25471;-77
2021/05/28 04:55:46;;;;;;;11.55;8.60;;;;;;;11.39;75.50;100543.47;1686017;81;25573;-78
2021/05/28 04:58:12;;;;;;;11.80;8.00;;;;;;;11.43;75.58;100546.56;1715921;81;32841;-77
2021/05/28 05:00:38;;;;;;;14.30;8.48;;;;;;;11.47;75.54;100546.56;1717348;81;25512;-77
2021/05/28 05:03:04;;;;;;;12.00;8.43;;;;;;;11.48;75.85;100549.50;1715279;81;25477;-77
2021/05/28 05:05:31;;;;;;;16.27;8.20;;;;;;;11.49;75.62;100545.92;1718142;81;25197;-77
2021/05/28 05:07:57;;;;;;;14.38;8.23;;;;;;;11.52;75.66;100548.20;1720187;81;25493;-77
2021/05/28 05:10:23;;;;;;;13.80;8.43;;;;;;;11.51;75.76;100555.70;1716378;81;25249;-77
2021/05/28 05:12:49;;;;;;;10.88;8.00;;;;;;;11.51;75.95;100546.08;1716522;81;25448;-76
2021/05/28 05:15:15;;;;;;;24.67;9.20;;;;;;;11.55;76.10;100550.48;1718641;81;25141;-77
2021/05/28 05:17:41;;;;;;;17.70;8.80;;;;;;;11.59;76.08;100553.08;1718126;81;30896;-77
2021/05/28 05:20:08;;;;;;;15.75;8.80;;;;;;;11.61;75.98;100557.66;1716049;81;25475;-77
2021/05/28 05:22:35;;;;;;;13.58;8.55;;;;;;;11.65;75.79;100551.59;1717700;81;25529;-77
2021/05/28 05:25:02;;;;;;;17.20;8.28;;;;;;;11.70;75.85;100548.82;1716254;81;25599;-77
2021/05/28 05:27:28;;;;;;;11.53;7.72;;;;;;;11.73;75.69;100551.57;1714321;81;25171;-77
2021/05/28 05:29:54;;;;;;;21.33;9.50;;;;;;;11.73;75.95;100548.48;1717295;81;29428;-77
2021/05/28 05:32:20;;;;;;;12.78;8.55;;;;;;;11.76;75.64;100552.07;1715032;81;34663;-76
2021/05/28 05:34:46;;;;;;;12.03;8.00;;;;;;;11.76;75.57;100550.77;1716348;81;25578;-76
2021/05/28 05:37:12;;;;;;;12.63;8.33;;;;;;;11.75;75.53;100539.95;1715594;81;25606;-77
2021/05/28 05:39:38;;;;;;;14.00;8.80;;;;;;;11.76;75.61;100548.14;1714029;81;32298;-77
2021/05/28 05:42:06;;;;;;;11.97;8.08;;;;;;;11.80;75.63;100551.23;1715640;81;25947;-77
2021/05/28 05:44:32;;;;;;;12.10;8.50;;;;;;;11.86;75.63;100554.52;1714560;81;25548;-76
2021/05/28 05:46:58;;;;;;;15.98;8.95;;;;;;;11.93;75.93;100552.86;1715644;81;25563;-77
2021/05/28 05:49:24;;;;;;;16.57;8.28;;;;;;;11.93;75.53;100549.44;1715873;81;25508;-76
2021/05/28 05:51:53;;;;;;;10.80;8.50;;;;;;;11.92;75.46;100552.55;1717138;81;26619;-77
2021/05/28 05:54:19;;;;;;;12.25;8.63;;;;;;;11.97;75.54;100548.91;1718256;81;25607;-76
2021/05/28 05:56:45;;;;;;;10.45;8.25;;;;;;;12.09;75.75;100556.42;1720465;81;25211;-77
2021/05/28 05:59:11;;;;;;;16.42;9.73;;;;;;;12.17;75.67;100551.95;1717259;81;25667;-77
2021/05/28 06:01:38;;;;;;;12.53;8.55;;;;;;;12.28;75.64;100552.58;1719766;81;25613;-77
2021/05/28 06:04:05;;;;;;;12.80;8.10;;;;;;;12.31;75.28;100554.34;1719350;81;25757;-77
2021/05/28 06:06:31;;;;;;;10.38;7.92;;;;;;;12.40;75.25;100548.06;1718922;81;25214;-77
2021/05/28 06:08:57;;;;;;;13.10;7.97;;;;;;;12.54;75.27;100555.69;1717397;81;25603;-77
2021/05/28 06:11:23;;;;;;;11.30;8.25;;;;;;;12.63;75.01;100557.30;1722300;81;25487;-77
2021/05/28 06:13:49;;;;;;;9.38;6.95;;;;;;;12.71;74.99;100558.21;1719078;81;25628;-77
2021/05/28 06:16:15;;;;;;;10.48;8.45;;;;;;;12.81;75.14;100559.61;1716155;81;31800;-77
2021/05/28 06:18:41;;;;;;;17.07;8.00;;;;;;;12.91;74.84;100561.21;1720819;81;31290;-77
2021/05/28 06:21:07;;;;;;;10.85;8.98;;;;;;;12.97;74.61;100569.18;1716546;81;25189;-77
2021/05/28 06:23:34;;;;;;;10.13;8.05;;;;;;;12.98;74.58;100566.87;1722121;81;32308;-77
2021/05/28 06:26:00;;;;;;;11.85;8.40;;;;;;;12.96;74.23;100567.56;1717718;81;25727;-77
2021/05/28 06:28:26;;;;;;;9.65;7.25;;;;;;;12.92;74.21;100575.95;1716467;81;33031;-75
2021/05/28 06:30:54;;;;;;;12.15;7.53;;;;;;;12.91;74.23;100569.89;1718268;81;25589;-79
2021/05/28 06:33:20;;;;;;;13.28;7.10;;;;;;;12.93;74.07;100574.47;1717147;81;25751;-74
2021/05/28 06:35:46;;;;;;;10.65;8.45;;;;;;;12.95;73.76;100571.66;1718540;81;32206;-75
2021/05/28 06:38:12;;;;;;;12.82;8.05;;;;;;;12.94;73.53;100570.84;1717280;81;25654;-75
2021/05/28 06:40:39;;;;;;;8.93;7.22;;;;;;;12.96;73.49;100575.44;1717267;81;25797;-75
2021/05/28 06:43:06;;;;;;;9.03;6.90;;;;;;;12.98;73.58;100574.73;1720361;81;26170;-77
2021/05/28 06:45:33;;;;;;;9.50;7.03;;;;;;;13.04;73.53;100582.41;1716983;81;25530;-74
2021/05/28 06:47:59;;;;;;;9.73;7.17;;;;;;;13.03;73.28;100579.47;1716771;81;26415;-76
2021/05/28 06:50:25;;;;;;;8.63;6.40;;;;;;;13.04;73.29;100571.91;1721962;81;27251;-75
2021/05/28 06:52:51;;;;;;;15.03;7.12;;;;;;;13.12;73.21;100575.78;1715918;81;25569;-77
2021/05/28 06:55:17;;;;;;;6.78;6.03;;;;;;;13.15;73.18;100588.58;1717653;81;25696;-76
2021/05/28 06:57:44;;;;;;;8.58;6.17;;;;;;;13.22;73.17;100581.61;1718612;81;25589;-75
2021/05/28 07:00:11;;;;;;;7.55;5.05;;;;;;;13.24;72.70;100582.26;1717829;81;32292;-75
2021/05/28 07:02:37;;;;;;;13.25;6.03;;;;;;;13.24;72.51;100573.58;1694241;81;27297;-75
2021/05/28 07:05:05;;;;;;;7.55;5.58;;;;;;;13.32;72.55;100572.22;1720017;81;33043;-75
2021/05/28 07:07:32;;;;;;;8.63;5.97;;;;;;;13.43;72.40;100573.60;1718837;81;25495;-76
2021/05/28 07:09:59;;;;;;;11.05;6.97;;;;;;;13.55;72.37;100576.91;1716154;81;25661;-76
2021/05/28 07:12:26;;;;;;;13.32;6.55;;;;;;;13.69;72.33;100581.05;1716772;81;25715;-76
2021/05/28 07:14:52;;;;;;;8.48;4.65;;;;;;;13.78;71.85;100585.24;1714063;81;25525;-75
2021/05/28 07:17:18;;;;;;;7.95;4.97;;;;;;;13.78;71.28;100587.88;1717459;81;25497;-75
2021/05/28 07:19:44;;;;;;;7.37;4.70;;;;;;;13.75;70.76;100584.30;1716329;81;25713;-75
2021/05/28 07:22:10;;;;;;;6.10;4.47;;;;;;;13.93;70.67;100587.86;1654920;81;34718;-75
2021/05/28 07:24:36;;;;;;;9.35;6.08;;;;;;;13.93;70.67;100587.86;1715515;81;32762;-74
2021/05/28 07:27:03;;;;;;;11.18;5.70;;;;;;;14.01;70.79;100579.08;1716557;81;26036;-72
2021/05/28 07:29:29;;;;;;;7.92;5.20;;;;;;;14.11;70.23;100580.94;1716270;81;25425;-74
2021/05/28 07:31:56;;;;;;;6.40;4.80;;;;;;;14.21;70.13;100584.08;1720190;81;31200;-75
2021/05/28 07:34:23;;;;;;;7.22;5.22;;;;;;;14.28;69.99;100580.23;1717566;81;26589;-75
2021/05/28 07:36:49;;;;;;;9.48;5.50;;;;;;;14.33;69.51;100586.57;1721898;81;25243;-77
2021/05/28 07:39:16;;;;;;;5.65;3.98;;;;;;;14.36;69.50;100583.57;1720848;81;25534;-79
2021/05/28 07:41:42;;;;;;;6.28;3.87;;;;;;;14.46;68.86;100589.87;1718435;81;26183;-81
2021/05/28 07:44:08;;;;;;;5.90;3.85;;;;;;;14.53;68.83;100589.96;1720045;81;25170;-75
2021/05/28 07:46:40;;;;;;;4.78;3.67;;;;;;;14.63;67.90;100588.66;1715135;81;25400;-77
2021/05/28 07:49:03;;;;;;;6.30;2.90;;;;;;;14.71;67.94;100589.56;1698629;81;25227;-78
2021/05/28 07:51:29;;;;;;;4.45;3.08;;;;;;;14.70;66.78;100584.77;1718428;81;25515;-77
2021/05/28 07:53:55;;;;;;;3.70;2.65;;;;;;;14.80;66.00;100585.80;1718187;81;33104;-79
2021/05/28 07:56:21;;;;;;;6.05;2.77;;;;;;;14.94;66.16;100598.08;1717262;81;31211;-77
2021/05/28 07:58:47;;;;;;;3.92;3.25;;;;;;;15.02;66.68;100593.20;1719771;81;34631;-75
2021/05/28 08:01:13;;;;;;;4.85;2.90;;;;;;;15.10;65.00;100585.17;1718290;81;32889;-73
2021/05/28 08:03:39;;;;;;;4.53;3.00;;;;;;;15.12;65.96;100587.62;1716645;81;25565;-74
2021/05/28 08:06:05;;;;;;;6.25;3.62;;;;;;;15.03;64.63;100586.45;1710615;81;25679;-73
2021/05/28 08:08:31;;;;;;;4.72;3.40;;;;;;;15.12;63.99;100591.58;1717570;81;25635;-75
2021/05/28 08:10:57;;;;;;;3.90;2.62;;;;;;;15.18;64.77;100590.81;1719408;81;34693;-76
2021/05/28 08:13:23;;;;;;;8.00;3.80;;;;;;;15.27;64.39;100597.56;1718374;81;33026;-75
2021/05/28 08:15:50;;;;;;;3.72;2.37;;;;;;;15.36;64.55;100589.86;1717368;81;28246;-76
2021/05/28 08:18:16;;;;;;;4.35;2.42;;;;;;;15.42;63.19;100590.41;1718975;81;26140;-75
2021/05/28 08:20:42;;;;;;;4.85;3.17;;;;;;;15.45;63.62;100590.53;1719917;81;31339;-75
2021/05/28 08:23:08;;;;;;;4.50;2.90;;;;;;;15.37;62.70;100592.80;1717986;81;25655;-74
2021/05/28 08:25:35;;;;;;;6.40;3.52;;;;;;;15.32;62.73;100585.97;1691041;81;25617;-75
2021/05/28 08:28:01;;;;;;;5.03;2.85;;;;;;;15.38;62.12;100581.75;1716472;81;25711;-76
2021/05/28 08:30:27;;;;;;;5.35;2.20;;;;;;;15.60;62.98;100583.84;1716082;81;25266;-77
2021/05/28 08:32:53;;;;;;;4.15;2.60;;;;;;;15.69;61.71;100591.95;1710405;82;25354;-77
2021/05/28 08:35:19;;;;;;;6.42;3.02;;;;;;;15.60;61.00;100588.59;1716056;81;34704;-78
2021/05/28 08:37:45;;;;;;;4.85;2.85;;;;;;;15.45;61.89;100593.16;1716968;81;25255;-78
2021/05/28 08:40:11;;;;;;;5.33;2.95;;;;;;;15.57;62.43;100590.81;1717395;81;25687;-77
2021/05/28 08:42:37;;;;;;;7.10;2.60;;;;;;;15.62;62.75;100590.55;1721397;81;25258;-77
2021/05/28 08:45:06;;;;;;;6.40;2.30;;;;;;;15.71;61.16;100584.64;1721701;81;25433;-77
2021/05/28 08:47:33;;;;;;;5.00;2.72;;;;;;;15.75;61.31;100585.91;1722277;81;25300;-77
2021/05/28 08:50:00;;;;;;;3.42;2.40;;;;;;;15.78;61.44;100585.52;1720526;81;25268;-78
2021/05/28 08:52:27;;;;;;;3.50;1.52;;;;;;;15.86;61.67;100589.31;1719828;81;25650;-78
2021/05/28 08:54:53;;;;;;;4.78;2.50;;;;;;;15.82;60.13;100596.47;1723891;81;25268;-78
2021/05/28 08:57:22;;;;;;;4.58;1.98;;;;;;;15.80;59.84;100583.50;1723933;81;25166;-78
2021/05/28 08:59:49;;;;;;;3.83;1.85;;;;;;;15.86;60.13;100583.23;1716751;81;25590;-75
2021/05/28 09:02:37;;;;;;;3.37;1.85;;;;;;;16.01;60.18;100589.69;1715008;81;25212;-76
2021/05/28 09:05:14;;;;;;;3.70;2.22;;;;;;;16.01;59.59;100591.81;1716073;81;25676;-76
2021/05/28 09:07:56;;;;;;;3.52;1.90;;;;;;;15.89;59.76;100588.11;1717718;81;25550;-78
2021/05/28 09:10:36;;;;;;;3.60;1.60;;;;;;;15.86;60.09;100582.72;1716751;81;25929;-79
2021/05/28 09:13:17;;;;;;;3.87;1.50;;;;;;;15.92;59.03;100588.53;1712820;81;35151;-78
2021/05/28 09:16:13;;;;;;;3.55;1.65;;;;;;;15.88;58.05;100580.72;1715468;81;25245;-77
2021/05/28 09:19:00;;;;;;;2.30;1.70;;;;;;;15.86;58.79;100592.45;1718314;81;25697;-76
2021/05/28 09:21:32;;;;;;;3.25;2.27;;;;;;;15.83;57.72;100582.31;1715380;81;25541;-77
2021/05/28 09:24:12;;;;;;;2.50;1.42;;;;;;;15.79;58.70;100585.00;1713248;81;25689;-76
2021/05/28 09:26:37;;;;;;;4.05;1.82;;;;;;;15.87;59.30;100582.22;1710023;81;25256;-76
2021/05/28 09:29:06;;;;;;;3.15;2.00;;;;;;;15.95;59.36;100564.41;1700595;81;32420;-80
2021/05/28 09:31:34;;;;;;;3.90;1.85;;;;;;;16.02;58.74;100569.73;1712969;81;25881;-77
2021/05/28 09:34:00;;;;;;;2.25;1.45;;;;;;;16.09;58.66;100567.11;1715997;81;25493;-76
2021/05/28 09:36:29;;;;;;;4.90;2.40;;;;;;;16.10;58.34;100572.20;1714769;81;25557;-78
2021/05/28 09:39:14;;;;;;;2.40;1.45;;;;;;;16.04;58.48;100563.77;1718667;81;25453;-76
2021/05/28 09:41:53;;;;;;;4.37;1.90;;;;;;;16.10;56.96;100562.17;1720220;81;25507;-73
2021/05/28 09:44:31;;;;;;;2.10;1.30;;;;;;;16.10;57.27;100568.77;1723400;81;25587;-77
2021/05/28 09:47:03;;;;;;;4.17;1.65;;;;;;;16.24;57.96;100569.12;1688817;81;25126;-78
2021/05/28 09:49:50;;;;;;;1.67;1.40;;;;;;;16.28;57.55;100563.74;1721535;81;25688;-78
2021/05/28 09:52:24;;;;;;;4.42;1.32;;;;;;;16.36;57.43;100566.20;1718393;81;25169;-77
2021/05/28 09:55:11;;;;;;;2.50;1.65;;;;;;;16.34;56.77;100561.66;1716453;81;25122;-73
2021/05/28 09:57:45;;;;;;;4.00;1.75;;;;;;;16.40;56.96;100565.33;1717270;81;25685;-81
2021/05/28 10:00:35;;;;;;;5.58;1.87;;;;;;;16.55;56.94;100557.23;1717707;81;25576;-80
2021/05/28 10:03:22;;;;;;;3.87;1.55;;;;;;;16.59;56.97;100556.65;1715453;81;25595;-79
2021/05/28 10:05:57;;;;;;;1.82;1.20;;;;;;;16.58;54.74;100562.11;1715135;81;25252;-77
2021/05/28 10:08:26;;;;;;;5.22;1.57;;;;;;;16.56;55.23;100557.05;1713984;81;25140;-75
2021/05/28 10:10:55;;;;;;;3.77;1.30;;;;;;;16.60;55.70;100556.13;1675772;81;27100;-76
2021/05/28 10:13:25;;;;;;;5.33;1.60;;;;;;;16.74;55.72;100551.18;1718670;81;26205;-77
2021/05/28 10:15:56;;;;;;;7.20;1.70;;;;;;;16.93;56.24;100546.97;1717868;81;25267;-77
2021/05/28 10:18:24;;;;;;;6.37;2.12;;;;;;;17.09;55.01;100557.65;1715062;81;25542;-79
2021/05/28 10:20:55;;;;;;;4.03;1.85;;;;;;;17.04;54.07;100553.48;1715391;81;25358;-77
2021/05/28 10:23:23;;;;;;;2.65;1.50;;;;;;;16.94;54.45;100552.58;1714912;81;25556;-74
2021/05/28 10:25:58;;;;;;;3.83;1.65;;;;;;;16.83;54.72;100553.15;1715854;81;25617;-77
2021/05/28 10:28:33;;;;;;;4.90;1.85;;;;;;;16.82;54.26;100562.90;1718010;81;25224;-76
2021/05/28 10:31:00;;;;;;;2.87;2.00;;;;;;;16.75;54.60;100559.42;1715118;81;25195;-76
2021/05/28 10:33:32;;;;;;;6.20;1.82;;;;;;;16.68;55.11;100561.74;1716212;81;25667;-75
2021/05/28 10:36:03;;;;;;;2.72;1.77;;;;;;;16.81;56.29;100561.28;1712384;81;25515;-76
2021/05/28 10:38:45;;;;;;;3.15;1.67;;;;;;;16.95;55.14;100554.19;1714664;81;25162;-79
2021/05/28 10:41:18;;;;;;;1.98;1.40;;;;;;;17.08;55.94;100554.20;1715406;81;25425;-76
2021/05/28 10:43:58;;;;;;;5.08;1.42;;;;;;;17.34;56.36;100550.43;1714728;81;25539;-77
2021/05/28 10:46:24;;;;;;;6.15;1.50;;;;;;;17.59;55.74;100543.98;1715642;81;25581;-76
2021/05/28 10:49:02;;;;;;;3.17;1.32;;;;;;;17.73;53.87;100537.16;1717317;81;25511;-76
2021/05/28 10:51:33;;;;;;;6.87;1.85;;;;;;;17.56;54.19;100545.72;1717078;81;25204;-76
2021/05/28 10:54:05;;;;;;;6.75;2.90;;;;;;;17.36;54.23;100546.56;1715065;81;25208;-76
2021/05/28 10:56:44;;;;;;;9.75;2.02;;;;;;;16.92;55.59;100548.00;1713148;81;25587;-76
2021/05/28 10:59:19;;;;;;;6.25;1.85;;;;;;;16.61;56.27;100557.27;1717326;81;25574;-76
2021/05/28 11:01:48;;;;;;;3.87;2.22;;;;;;;16.42;56.33;100552.73;1714507;81;25787;-76
2021/05/28 11:04:17;;;;;;;7.47;1.52;;;;;;;16.17;57.07;100556.40;1714183;81;25174;-76
2021/05/28 11:07:02;;;;;;;6.08;1.40;;;;;;;16.07;57.52;100555.46;1715562;81;25182;-76
2021/05/28 11:09:41;;;;;;;2.02;1.10;;;;;;;16.05;57.52;100563.26;1714805;81;25175;-78
2021/05/28 11:12:16;;;;;;;1.87;1.00;;;;;;;15.90;57.43;100565.50;1717564;81;25202;-76
2021/05/28 11:15:10;;;;;;;1.57;0.90;;;;;;;15.72;57.64;100571.29;1716754;81;25626;-77
2021/05/28 11:18:03;;;;;;;4.15;0.90;;;;;;;15.56;57.65;100562.34;1715786;81;25599;-78
2021/05/28 11:20:39;;;;;;;0.82;0.70;;;;;;;15.34;58.44;100562.89;1714812;81;25865;-76
2021/05/28 11:23:16;;;;;;;2.00;0.80;;;;;;;15.13;58.45;100566.87;1714444;81;26327;-76
2021/05/28 11:25:52;;;;;;;1.77;0.80;;;;;;;15.08;59.03;100561.66;1696759;81;25694;-75